sensor_id;sensor_type;location;lat;lon;timestamp;pressure;altitude;pressure_sealevel;temperature
15144;BMP180;7672;50.834;6.286;2023-01-16T00:00:12;97900.84;;;9.75
15144;BMP180;7672;50.834;6.286;2023-01-16T00:02:39;97897.50;;;9.74
15144;BMP180;7672;50.834;6.286;2023-01-16T00:05:06;97888.31;;;9.70
15144;BMP180;7672;50.834;6.286;2023-01-16T00:07:33;97881.63;;;9.69
15144;BMP180;7672;50.834;6.286;2023-01-16T00:09:59;97877.50;;;9.67
15144;BMP180;7672;50.834;6.286;2023-01-16T00:12:26;97881.69;;;9.66
15144;BMP180;7672;50.834;6.286;2023-01-16T00:14:53;97877.50;;;9.67
15144;BMP180;7672;50.834;6.286;2023-01-16T00:17:20;97871.59;;;9.66
15144;BMP180;7672;50.834;6.286;2023-01-16T00:19:46;97853.16;;;9.64
15144;BMP180;7672;50.834;6.286;2023-01-16T00:22:13;97860.78;;;9.61
15144;BMP180;7672;50.834;6.286;2023-01-16T00:24:40;97849.88;;;9.61
15144;BMP180;7672;50.834;6.286;2023-01-16T00:27:07;97844.91;;;9.58
15144;BMP180;7672;50.834;6.286;2023-01-16T00:29:34;97837.38;;;9.55
15144;BMP180;7672;50.834;6.286;2023-01-16T00:32:01;97839.16;;;9.50
15144;BMP180;7672;50.834;6.286;2023-01-16T00:34:28;97826.59;;;9.48
15144;BMP180;7672;50.834;6.286;2023-01-16T00:36:54;97819.16;;;9.44
15144;BMP180;7672;50.834;6.286;2023-01-16T00:39:21;97822.56;;;9.41
15144;BMP180;7672;50.834;6.286;2023-01-16T00:41:48;97806.63;;;9.39
15144;BMP180;7672;50.834;6.286;2023-01-16T00:44:15;97804.91;;;9.40
15144;BMP180;7672;50.834;6.286;2023-01-16T00:46:42;97806.63;;;9.39
15144;BMP180;7672;50.834;6.286;2023-01-16T00:49:09;97802.50;;;9.35
15144;BMP180;7672;50.834;6.286;2023-01-16T00:51:36;97791.63;;;9.33
15144;BMP180;7672;50.834;6.286;2023-01-16T00:54:03;97777.38;;;9.31
15144;BMP180;7672;50.834;6.286;2023-01-16T00:56:29;97778.28;;;9.28
15144;BMP180;7672;50.834;6.286;2023-01-16T00:58:56;97777.47;;;9.28
15144;BMP180;7672;50.834;6.286;2023-01-16T01:01:23;97768.25;;;9.27
15144;BMP180;7672;50.834;6.286;2023-01-16T01:03:50;97759.88;;;9.26
15144;BMP180;7672;50.834;6.286;2023-01-16T01:06:16;97759.88;;;9.26
15144;BMP180;7672;50.834;6.286;2023-01-16T01:08:43;97755.69;;;9.25
15144;BMP180;7672;50.834;6.286;2023-01-16T01:11:13;97764.13;;;9.23
15144;BMP180;7672;50.834;6.286;2023-01-16T01:13:41;97753.22;;;9.23
15144;BMP180;7672;50.834;6.286;2023-01-16T01:16:10;97751.59;;;9.20
15144;BMP180;7672;50.834;6.286;2023-01-16T01:18:37;97748.25;;;9.20
15144;BMP180;7672;50.834;6.286;2023-01-16T01:21:05;97745.75;;;9.18
15144;BMP180;7672;50.834;6.286;2023-01-16T01:23:31;97734.91;;;9.15
15144;BMP180;7672;50.834;6.286;2023-01-16T01:26:05;97724.88;;;9.13
15144;BMP180;7672;50.834;6.286;2023-01-16T01:28:31;97719.00;;;9.13
15144;BMP180;7672;50.834;6.286;2023-01-16T01:31:12;97714.81;;;9.12
15144;BMP180;7672;50.834;6.286;2023-01-16T01:33:40;97713.16;;;9.11
15144;BMP180;7672;50.834;6.286;2023-01-16T01:36:07;97702.25;;;9.10
15144;BMP180;7672;50.834;6.286;2023-01-16T01:38:35;97703.09;;;9.11
15144;BMP180;7672;50.834;6.286;2023-01-16T01:41:02;97695.53;;;9.11
15144;BMP180;7672;50.834;6.286;2023-01-16T01:43:58;97686.28;;;9.10
15144;BMP180;7672;50.834;6.286;2023-01-16T01:46:39;97680.53;;;9.06
15144;BMP180;7672;50.834;6.286;2023-01-16T01:49:26;97672.16;;;9.04
15144;BMP180;7672;50.834;6.286;2023-01-16T01:51:58;97671.34;;;9.04
15144;BMP180;7672;50.834;6.286;2023-01-16T01:54:41;97664.63;;;9.03
15144;BMP180;7672;50.834;6.286;2023-01-16T01:57:23;97655.41;;;9.02
15144;BMP180;7672;50.834;6.286;2023-01-16T02:00:18;97652.91;;;9.02
15144;BMP180;7672;50.834;6.286;2023-01-16T02:02:53;97647.91;;;9.00
15144;BMP180;7672;50.834;6.286;2023-01-16T02:05:33;97640.34;;;9.00
15144;BMP180;7672;50.834;6.286;2023-01-16T02:08:04;97642.84;;;9.00
15144;BMP180;7672;50.834;6.286;2023-01-16T02:10:43;97628.59;;;8.99
15144;BMP180;7672;50.834;6.286;2023-01-16T02:13:10;97623.56;;;8.99
15144;BMP180;7672;50.834;6.286;2023-01-16T02:15:38;97618.47;;;9.01
15144;BMP180;7672;50.834;6.286;2023-01-16T02:18:25;97614.34;;;8.98
15144;BMP180;7672;50.834;6.286;2023-01-16T02:33:16;97574.94;;;8.96
15144;BMP180;7672;50.834;6.286;2023-01-16T02:36:26;97561.47;;;8.97
15144;BMP180;7672;50.834;6.286;2023-01-16T02:39:15;97555.72;;;8.93
15144;BMP180;7672;50.834;6.286;2023-01-16T02:47:35;97520.00;;;8.76
15144;BMP180;7672;50.834;6.286;2023-01-16T02:50:10;97523.50;;;8.71
15144;BMP180;7672;50.834;6.286;2023-01-16T02:52:45;97512.66;;;8.67
15144;BMP180;7672;50.834;6.286;2023-01-16T02:55:22;97512.78;;;8.63
15144;BMP180;7672;50.834;6.286;2023-01-16T02:58:00;97503.59;;;8.59
15144;BMP180;7672;50.834;6.286;2023-01-16T03:00:29;97489.44;;;8.55
15144;BMP180;7672;50.834;6.286;2023-01-16T03:02:58;97480.31;;;8.51
15144;BMP180;7672;50.834;6.286;2023-01-16T03:05:32;97469.47;;;8.49
15144;BMP180;7672;50.834;6.286;2023-01-16T03:08:07;97461.91;;;8.48
15144;BMP180;7672;50.834;6.286;2023-01-16T03:11:07;97452.75;;;8.47
15144;BMP180;7672;50.834;6.286;2023-01-16T03:13:55;97446.09;;;8.44
15144;BMP180;7672;50.834;6.286;2023-01-16T03:22:12;97434.38;;;8.43
15144;BMP180;7672;50.834;6.286;2023-01-16T03:25:02;97424.28;;;8.43
15144;BMP180;7672;50.834;6.286;2023-01-16T03:27:49;97415.00;;;8.45
15144;BMP180;7672;50.834;6.286;2023-01-16T03:30:58;97405.75;;;8.47
15144;BMP180;7672;50.834;6.286;2023-01-16T03:33:56;97396.53;;;8.46
15144;BMP180;7672;50.834;6.286;2023-01-16T03:36:46;97377.25;;;8.45
15144;BMP180;7672;50.834;6.286;2023-01-16T03:39:22;97377.19;;;8.48
15144;BMP180;7672;50.834;6.286;2023-01-16T03:41:54;97362.06;;;8.50
15144;BMP180;7672;50.834;6.286;2023-01-16T03:44:31;97356.94;;;8.54
15144;BMP180;7672;50.834;6.286;2023-01-16T03:47:02;97348.50;;;8.55
15144;BMP180;7672;50.834;6.286;2023-01-16T03:49:42;97341.78;;;8.56
15144;BMP180;7672;50.834;6.286;2023-01-16T03:52:15;97334.22;;;8.56
15144;BMP180;7672;50.834;6.286;2023-01-16T03:55:12;97321.59;;;8.57
15144;BMP180;7672;50.834;6.286;2023-01-16T03:58:05;97319.94;;;8.56
15144;BMP180;7672;50.834;6.286;2023-01-16T04:00:48;97301.56;;;8.53
15144;BMP180;7672;50.834;6.286;2023-01-16T04:03:28;97294.00;;;8.54
15144;BMP180;7672;50.834;6.286;2023-01-16T04:09:08;97278.91;;;8.53
15144;BMP180;7672;50.834;6.286;2023-01-16T04:11:38;97264.72;;;8.52
15144;BMP180;7672;50.834;6.286;2023-01-16T04:14:09;97257.88;;;8.55
15144;BMP180;7672;50.834;6.286;2023-01-16T04:16:39;97245.25;;;8.58
15144;BMP180;7672;50.834;6.286;2023-01-16T04:19:11;97245.13;;;8.61
15144;BMP180;7672;50.834;6.286;2023-01-16T04:21:44;97237.50;;;8.64
15144;BMP180;7672;50.834;6.286;2023-01-16T04:24:11;97224.00;;;8.68
15144;BMP180;7672;50.834;6.286;2023-01-16T04:26:38;97222.25;;;8.70
15144;BMP180;7672;50.834;6.286;2023-01-16T04:29:05;97207.94;;;8.72
15144;BMP180;7672;50.834;6.286;2023-01-16T04:31:32;97198.56;;;8.75
15144;BMP180;7672;50.834;6.286;2023-01-16T04:33:59;97191.75;;;8.79
15144;BMP180;7672;50.834;6.286;2023-01-16T04:36:25;97182.44;;;8.82
15144;BMP180;7672;50.834;6.286;2023-01-16T04:38:52;97172.22;;;8.87
15144;BMP180;7672;50.834;6.286;2023-01-16T04:41:19;97167.97;;;8.89
15144;BMP180;7672;50.834;6.286;2023-01-16T04:44:05;97167.06;;;8.91
15144;BMP180;7672;50.834;6.286;2023-01-16T04:46:33;97156.13;;;8.92
15144;BMP180;7672;50.834;6.286;2023-01-16T04:49:00;97141.78;;;8.94
15144;BMP180;7672;50.834;6.286;2023-01-16T04:51:27;97134.97;;;8.98
15144;BMP180;7672;50.834;6.286;2023-01-16T04:53:55;97119.00;;;8.99
15144;BMP180;7672;50.834;6.286;2023-01-16T04:56:23;97102.97;;;9.01
15144;BMP180;7672;50.834;6.286;2023-01-16T04:58:50;97097.00;;;9.04
15144;BMP180;7672;50.834;6.286;2023-01-16T05:01:18;97092.72;;;9.06
15144;BMP180;7672;50.834;6.286;2023-01-16T05:03:45;97074.13;;;9.10
15144;BMP180;7672;50.834;6.286;2023-01-16T05:06:11;97069.00;;;9.13
15144;BMP180;7672;50.834;6.286;2023-01-16T05:08:41;97062.16;;;9.18
15144;BMP180;7672;50.834;6.286;2023-01-16T05:11:09;97060.38;;;9.20
15144;BMP180;7672;50.834;6.286;2023-01-16T05:13:35;97043.47;;;9.23
15144;BMP180;7672;50.834;6.286;2023-01-16T05:16:03;97052.63;;;9.25
15144;BMP180;7672;50.834;6.286;2023-01-16T05:18:30;97052.53;;;9.28
15144;BMP180;7672;50.834;6.286;2023-01-16T05:20:57;97035.66;;;9.30
15144;BMP180;7672;50.834;6.286;2023-01-16T05:23:23;97021.28;;;9.34
15144;BMP180;7672;50.834;6.286;2023-01-16T05:25:50;97014.41;;;9.37
15144;BMP180;7672;50.834;6.286;2023-01-16T05:28:17;97006.78;;;9.40
15144;BMP180;7672;50.834;6.286;2023-01-16T05:30:44;96993.25;;;9.43
15144;BMP180;7672;50.834;6.286;2023-01-16T05:33:10;96997.31;;;9.47
15144;BMP180;7672;50.834;6.286;2023-01-16T05:35:37;96994.75;;;9.48
15144;BMP180;7672;50.834;6.286;2023-01-16T05:38:04;96981.16;;;9.52
15144;BMP180;7672;50.834;6.286;2023-01-16T05:40:31;96976.84;;;9.56
15144;BMP180;7672;50.834;6.286;2023-01-16T05:42:58;96977.63;;;9.58
15144;BMP180;7672;50.834;6.286;2023-01-16T05:45:25;96959.84;;;9.61
15144;BMP180;7672;50.834;6.286;2023-01-16T05:47:52;96955.63;;;9.61
15144;BMP180;7672;50.834;6.286;2023-01-16T05:50:19;96951.38;;;9.63
15144;BMP180;7672;50.834;6.286;2023-01-16T05:52:46;96945.34;;;9.67
15144;BMP180;7672;50.834;6.286;2023-01-16T05:55:13;96926.75;;;9.70
15144;BMP180;7672;50.834;6.286;2023-01-16T05:57:40;96916.72;;;9.68
15144;BMP180;7672;50.834;6.286;2023-01-16T06:00:07;96900.75;;;9.68
15144;BMP180;7672;50.834;6.286;2023-01-16T06:02:35;96884.00;;;9.67
15144;BMP180;7672;50.834;6.286;2023-01-16T06:05:02;96890.69;;;9.68
15144;BMP180;7672;50.834;6.286;2023-01-16T06:07:29;96880.56;;;9.69
15144;BMP180;7672;50.834;6.286;2023-01-16T06:09:55;96874.75;;;9.67
15144;BMP180;7672;50.834;6.286;2023-01-16T06:12:22;96867.19;;;9.67
15144;BMP180;7672;50.834;6.286;2023-01-16T06:14:49;96864.66;;;9.67
15144;BMP180;7672;50.834;6.286;2023-01-16T06:17:16;96847.88;;;9.66
15144;BMP180;7672;50.834;6.286;2023-01-16T06:19:45;96842.84;;;9.66
15144;BMP180;7672;50.834;6.286;2023-01-16T06:22:13;96839.44;;;9.67
15144;BMP180;7672;50.834;6.286;2023-01-16T06:24:39;96832.50;;;9.95
15144;BMP180;7672;50.834;6.286;2023-01-16T06:27:06;96817.03;;;10.04
15144;BMP180;7672;50.834;6.286;2023-01-16T06:29:34;96817.34;;;9.95
15144;BMP180;7672;50.834;6.286;2023-01-16T06:32:00;96810.00;;;9.89
15144;BMP180;7672;50.834;6.286;2023-01-16T06:34:27;96806.81;;;9.85
15144;BMP180;7672;50.834;6.286;2023-01-16T06:36:54;96790.97;;;9.82
15144;BMP180;7672;50.834;6.286;2023-01-16T06:39:21;96781.75;;;9.81
15144;BMP180;7672;50.834;6.286;2023-01-16T06:41:47;96791.84;;;9.81
15144;BMP180;7672;50.834;6.286;2023-01-16T06:44:14;96766.78;;;9.77
15144;BMP180;7672;50.834;6.286;2023-01-16T06:46:41;96771.03;;;9.76
15144;BMP180;7672;50.834;6.286;2023-01-16T06:49:10;96762.75;;;9.73
15144;BMP180;7672;50.834;6.286;2023-01-16T06:51:38;96766.91;;;9.74
15144;BMP180;7672;50.834;6.286;2023-01-16T06:54:04;96753.38;;;9.76
15144;BMP180;7672;50.834;6.286;2023-01-16T06:56:31;96737.44;;;9.76
15144;BMP180;7672;50.834;6.286;2023-01-16T06:58:58;96730.69;;;9.76
15144;BMP180;7672;50.834;6.286;2023-01-16T07:01:25;96717.38;;;9.73
15144;BMP180;7672;50.834;6.286;2023-01-16T07:03:52;96700.91;;;9.64
15144;BMP180;7672;50.834;6.286;2023-01-16T07:06:19;96675.31;;;9.53
15144;BMP180;7672;50.834;6.286;2023-01-16T07:08:45;96692.38;;;9.47
15144;BMP180;7672;50.834;6.286;2023-01-16T07:11:16;96684.31;;;9.37
15144;BMP180;7672;50.834;6.286;2023-01-16T07:13:43;96673.72;;;9.29
15144;BMP180;7672;50.834;6.286;2023-01-16T07:16:15;96663.06;;;9.23
15144;BMP180;7672;50.834;6.286;2023-01-16T07:19:02;96663.34;;;9.16
15144;BMP180;7672;50.834;6.286;2023-01-16T07:21:47;96647.72;;;9.08
15144;BMP180;7672;50.834;6.286;2023-01-16T07:24:37;96652.97;;;9.02
15144;BMP180;7672;50.834;6.286;2023-01-16T07:27:06;96642.16;;;9.00
15144;BMP180;7672;50.834;6.286;2023-01-16T07:29:36;96648.16;;;8.96
15144;BMP180;7672;50.834;6.286;2023-01-16T07:32:04;96621.44;;;8.93
15144;BMP180;7672;50.834;6.286;2023-01-16T07:34:31;96622.38;;;8.91
15144;BMP180;7672;50.834;6.286;2023-01-16T07:36:58;96609.00;;;8.89
15144;BMP180;7672;50.834;6.286;2023-01-16T07:39:24;96606.63;;;8.84
15144;BMP180;7672;50.834;6.286;2023-01-16T07:41:51;96610.06;;;8.83
15144;BMP180;7672;50.834;6.286;2023-01-16T07:44:24;96602.56;;;8.82
15144;BMP180;7672;50.834;6.286;2023-01-16T07:46:51;96595.03;;;8.82
15144;BMP180;7672;50.834;6.286;2023-01-16T07:49:17;96605.84;;;8.84
15144;BMP180;7672;50.834;6.286;2023-01-16T07:51:44;96590.72;;;8.84
15144;BMP180;7672;50.834;6.286;2023-01-16T07:54:11;96584.03;;;8.83
15144;BMP180;7672;50.834;6.286;2023-01-16T07:56:38;96577.41;;;8.82
15144;BMP180;7672;50.834;6.286;2023-01-16T07:59:06;96574.03;;;8.81
15144;BMP180;7672;50.834;6.286;2023-01-16T08:01:33;96565.69;;;8.81
15144;BMP180;7672;50.834;6.286;2023-01-16T08:04:01;96560.66;;;8.81
15144;BMP180;7672;50.834;6.286;2023-01-16T08:06:28;96551.44;;;8.80
15144;BMP180;7672;50.834;6.286;2023-01-16T08:08:54;96559.81;;;8.80
15144;BMP180;7672;50.834;6.286;2023-01-16T08:11:21;96542.16;;;8.82
15144;BMP180;7672;50.834;6.286;2023-01-16T08:14:06;96523.81;;;8.78
15144;BMP180;7672;50.834;6.286;2023-01-16T08:16:34;96533.81;;;8.80
15144;BMP180;7672;50.834;6.286;2023-01-16T08:19:00;96530.53;;;8.78
15144;BMP180;7672;50.834;6.286;2023-01-16T08:21:27;96528.03;;;8.78
15144;BMP180;7672;50.834;6.286;2023-01-16T08:23:54;96521.41;;;8.75
15144;BMP180;7672;50.834;6.286;2023-01-16T08:26:21;96505.63;;;8.72
15144;BMP180;7672;50.834;6.286;2023-01-16T08:28:48;96510.69;;;8.70
15144;BMP180;7672;50.834;6.286;2023-01-16T08:31:15;96503.13;;;8.70
15144;BMP180;7672;50.834;6.286;2023-01-16T08:33:44;96489.00;;;8.68
15144;BMP180;7672;50.834;6.286;2023-01-16T08:36:14;96502.34;;;8.70
15144;BMP180;7672;50.834;6.286;2023-01-16T08:38:43;96477.97;;;8.70
15144;BMP180;7672;50.834;6.286;2023-01-16T08:41:11;96465.66;;;8.64
15144;BMP180;7672;50.834;6.286;2023-01-16T08:43:56;96473.38;;;8.60
15144;BMP180;7672;50.834;6.286;2023-01-16T08:46:43;96468.41;;;8.59
15144;BMP180;7672;50.834;6.286;2023-01-16T08:49:32;96470.03;;;8.60
15144;BMP180;7672;50.834;6.286;2023-01-16T08:52:18;96462.34;;;8.62
15144;BMP180;7672;50.834;6.286;2023-01-16T08:54:44;96458.91;;;8.65
15144;BMP180;7672;50.834;6.286;2023-01-16T08:57:11;96452.81;;;8.70
15144;BMP180;7672;50.834;6.286;2023-01-16T08:59:38;96440.13;;;8.73
15144;BMP180;7672;50.834;6.286;2023-01-16T09:02:07;96455.16;;;8.75
15144;BMP180;7672;50.834;6.286;2023-01-16T09:04:36;96446.59;;;8.79
15144;BMP180;7672;50.834;6.286;2023-01-16T09:07:03;96449.00;;;8.82
15144;BMP180;7672;50.834;6.286;2023-01-16T09:09:29;96431.25;;;8.85
15144;BMP180;7672;50.834;6.286;2023-01-16T09:11:57;96439.44;;;8.90
15144;BMP180;7672;50.834;6.286;2023-01-16T09:14:42;96427.59;;;8.92
15144;BMP180;7672;50.834;6.286;2023-01-16T09:17:09;96418.28;;;8.94
15144;BMP180;7672;50.834;6.286;2023-01-16T09:19:36;96424.06;;;8.96
15144;BMP180;7672;50.834;6.286;2023-01-16T09:22:04;96403.88;;;8.97
15144;BMP180;7672;50.834;6.286;2023-01-16T09:24:33;96415.56;;;8.98
15144;BMP180;7672;50.834;6.286;2023-01-16T09:27:02;96401.22;;;9.00
15144;BMP180;7672;50.834;6.286;2023-01-16T09:29:30;96396.03;;;9.05
15144;BMP180;7672;50.834;6.286;2023-01-16T09:31:58;96392.56;;;9.07
15144;BMP180;7672;50.834;6.286;2023-01-16T09:34:25;96402.50;;;9.10
15144;BMP180;7672;50.834;6.286;2023-01-16T09:36:51;96398.97;;;9.14
15144;BMP180;7672;50.834;6.286;2023-01-16T09:39:18;96391.22;;;9.19
15144;BMP180;7672;50.834;6.286;2023-01-16T09:45:07;96391.97;;;9.21
15144;BMP180;7672;50.834;6.286;2023-01-16T09:47:35;96378.28;;;9.26
15144;BMP180;7672;50.834;6.286;2023-01-16T09:50:30;96366.31;;;9.31
15144;BMP180;7672;50.834;6.286;2023-01-16T09:53:02;96356.84;;;9.36
15144;BMP180;7672;50.834;6.286;2023-01-16T09:55:50;96363.00;;;9.49
15144;BMP180;7672;50.834;6.286;2023-01-16T09:58:43;96358.16;;;9.63
15144;BMP180;7672;50.834;6.286;2023-01-16T10:01:32;96380.09;;;9.79
15144;BMP180;7672;50.834;6.286;2023-01-16T10:04:22;96380.94;;;9.98
15144;BMP180;7672;50.834;6.286;2023-01-16T10:12:33;96342.38;;;10.48
15144;BMP180;7672;50.834;6.286;2023-01-16T10:18:22;96321.03;;;10.87
15144;BMP180;7672;50.834;6.286;2023-01-16T10:21:15;96317.03;;;11.15
15144;BMP180;7672;50.834;6.286;2023-01-16T10:27:03;96304.06;;;12.15
15144;BMP180;7672;50.834;6.286;2023-01-16T10:29:37;96286.00;;;12.94
15144;BMP180;7672;50.834;6.286;2023-01-16T10:32:27;96283.94;;;13.82
15144;BMP180;7672;50.834;6.286;2023-01-16T10:35:04;96280.22;;;14.52
15144;BMP180;7672;50.834;6.286;2023-01-16T10:37:34;96267.16;;;15.20
15144;BMP180;7672;50.834;6.286;2023-01-16T10:40:20;96261.81;;;15.84
15144;BMP180;7672;50.834;6.286;2023-01-16T10:43:04;96239.03;;;16.29
15144;BMP180;7672;50.834;6.286;2023-01-16T10:45:53;96233.13;;;16.73
15144;BMP180;7672;50.834;6.286;2023-01-16T10:48:39;96222.97;;;17.17
15144;BMP180;7672;50.834;6.286;2023-01-16T10:51:25;96222.47;;;17.56
15144;BMP180;7672;50.834;6.286;2023-01-16T10:53:52;96218.59;;;17.83
15144;BMP180;7672;50.834;6.286;2023-01-16T10:56:19;96210.72;;;18.06
15144;BMP180;7672;50.834;6.286;2023-01-16T10:58:45;96212.97;;;18.31
15144;BMP180;7672;50.834;6.286;2023-01-16T11:01:20;96197.94;;;18.58
15144;BMP180;7672;50.834;6.286;2023-01-16T11:03:52;96187.47;;;18.81
15144;BMP180;7672;50.834;6.286;2023-01-16T11:06:28;96197.59;;;18.92
15144;BMP180;7672;50.834;6.286;2023-01-16T11:11:40;96183.78;;;19.24
15144;BMP180;7672;50.834;6.286;2023-01-16T11:14:30;96175.53;;;19.21
15144;BMP180;7672;50.834;6.286;2023-01-16T11:17:31;96163.84;;;18.98
15144;BMP180;7672;50.834;6.286;2023-01-16T11:20:33;96153.69;;;18.58
15144;BMP180;7672;50.834;6.286;2023-01-16T11:23:22;96155.63;;;18.24
15144;BMP180;7672;50.834;6.286;2023-01-16T11:25:53;96138.66;;;18.03
15144;BMP180;7672;50.834;6.286;2023-01-16T11:28:25;96134.16;;;17.96
15144;BMP180;7672;50.834;6.286;2023-01-16T11:30:57;96121.50;;;17.94
15144;BMP180;7672;50.834;6.286;2023-01-16T11:33:34;96123.06;;;17.86
15144;BMP180;7672;50.834;6.286;2023-01-16T11:36:04;96113.13;;;17.72
15144;BMP180;7672;50.834;6.286;2023-01-16T11:38:36;96103.34;;;17.56
15144;BMP180;7672;50.834;6.286;2023-01-16T11:41:06;96116.38;;;17.42
15144;BMP180;7672;50.834;6.286;2023-01-16T11:43:35;96101.91;;;17.21
15144;BMP180;7672;50.834;6.286;2023-01-16T11:48:58;96101.59;;;16.60
15144;BMP180;7672;50.834;6.286;2023-01-16T11:51:31;96091.50;;;16.26
15144;BMP180;7672;50.834;6.286;2023-01-16T11:54:00;96094.66;;;15.95
15144;BMP180;7672;50.834;6.286;2023-01-16T12:09:19;96036.66;;;15.19
15144;BMP180;7672;50.834;6.286;2023-01-16T12:12:14;96028.53;;;15.27
15144;BMP180;7672;50.834;6.286;2023-01-16T12:15:21;96026.88;;;15.26
15144;BMP180;7672;50.834;6.286;2023-01-16T12:18:27;96025.41;;;15.11
15144;BMP180;7672;50.834;6.286;2023-01-16T12:21:02;96054.88;;;14.90
15144;BMP180;7672;50.834;6.286;2023-01-16T12:26:35;96019.88;;;14.34
15144;BMP180;7672;50.834;6.286;2023-01-16T12:29:22;96013.00;;;14.12
15144;BMP180;7672;50.834;6.286;2023-01-16T12:34:58;95999.97;;;13.66
15144;BMP180;7672;50.834;6.286;2023-01-16T12:37:52;95994.84;;;13.42
15144;BMP180;7672;50.834;6.286;2023-01-16T12:40:51;95992.81;;;13.22
15144;BMP180;7672;50.834;6.286;2023-01-16T12:43:37;95985.16;;;13.09
15144;BMP180;7672;50.834;6.286;2023-01-16T12:49:42;95969.44;;;13.04
15144;BMP180;7672;50.834;6.286;2023-01-16T12:52:45;95966.13;;;13.04
15144;BMP180;7672;50.834;6.286;2023-01-16T12:58:22;95950.34;;;12.87
15144;BMP180;7672;50.834;6.286;2023-01-16T13:04:00;95934.03;;;12.64
15144;BMP180;7672;50.834;6.286;2023-01-16T13:09:13;95912.84;;;12.39
15144;BMP180;7672;50.834;6.286;2023-01-16T13:12:17;95911.91;;;12.28
15144;BMP180;7672;50.834;6.286;2023-01-16T13:15:11;95906.78;;;12.15
15144;BMP180;7672;50.834;6.286;2023-01-16T13:17:51;95905.44;;;12.10
15144;BMP180;7672;50.834;6.286;2023-01-16T13:20:23;95901.56;;;12.04
15144;BMP180;7672;50.834;6.286;2023-01-16T13:23:09;95899.41;;;11.98
15144;BMP180;7672;50.834;6.286;2023-01-16T13:25:46;95892.38;;;11.89
15144;BMP180;7672;50.834;6.286;2023-01-16T13:31:11;95894.56;;;11.81
15144;BMP180;7672;50.834;6.286;2023-01-16T13:33:44;95883.63;;;11.81
15144;BMP180;7672;50.834;6.286;2023-01-16T13:36:56;95889.88;;;11.75
15144;BMP180;7672;50.834;6.286;2023-01-16T13:42:36;95897.66;;;11.59
15144;BMP180;7672;50.834;6.286;2023-01-16T13:45:35;95891.31;;;11.52
15144;BMP180;7672;50.834;6.286;2023-01-16T13:48:41;95896.16;;;11.41
15144;BMP180;7672;50.834;6.286;2023-01-16T13:51:15;95892.63;;;11.29
15144;BMP180;7672;50.834;6.286;2023-01-16T13:53:51;95897.50;;;11.18
15144;BMP180;7672;50.834;6.286;2023-01-16T13:56:23;95892.97;;;11.09
15144;BMP180;7672;50.834;6.286;2023-01-16T13:59:03;95881.13;;;10.96
15144;BMP180;7672;50.834;6.286;2023-01-16T14:06:50;95868.16;;;10.59
15144;BMP180;7672;50.834;6.286;2023-01-16T14:10:07;95856.19;;;10.47
15144;BMP180;7672;50.834;6.286;2023-01-16T14:12:58;95864.38;;;10.37
15144;BMP180;7672;50.834;6.286;2023-01-16T14:15:58;95857.88;;;10.33
15144;BMP180;7672;50.834;6.286;2023-01-16T14:24:19;95867.00;;;10.20
15144;BMP180;7672;50.834;6.286;2023-01-16T14:26:58;95859.50;;;10.18
15144;BMP180;7672;50.834;6.286;2023-01-16T14:29:45;95862.09;;;10.17
15144;BMP180;7672;50.834;6.286;2023-01-16T14:37:32;95855.28;;;10.19
15144;BMP180;7672;50.834;6.286;2023-01-16T14:40:20;95847.91;;;10.16
15144;BMP180;7672;50.834;6.286;2023-01-16T14:42:56;95852.19;;;10.14
15144;BMP180;7672;50.834;6.286;2023-01-16T14:49:37;95847.66;;;10.05
15144;BMP180;7672;50.834;6.286;2023-01-16T14:52:46;95856.28;;;10.01
15144;BMP180;7672;50.834;6.286;2023-01-16T14:55:53;95843.75;;;9.99
15144;BMP180;7672;50.834;6.286;2023-01-16T14:58:40;95842.84;;;10.00
15144;BMP180;7672;50.834;6.286;2023-01-16T15:01:20;95835.13;;;10.03
15144;BMP180;7672;50.834;6.286;2023-01-16T15:04:07;95843.31;;;10.07
15144;BMP180;7672;50.834;6.286;2023-01-16T15:06:40;95833.97;;;10.09
15144;BMP180;7672;50.834;6.286;2023-01-16T15:09:15;95838.03;;;10.11
15144;BMP180;7672;50.834;6.286;2023-01-16T15:12:14;95834.63;;;10.12
15144;BMP180;7672;50.834;6.286;2023-01-16T15:14:56;95841.38;;;10.12
15144;BMP180;7672;50.834;6.286;2023-01-16T15:17:39;95836.41;;;10.10
15144;BMP180;7672;50.834;6.286;2023-01-16T15:20:27;95837.28;;;10.09
15144;BMP180;7672;50.834;6.286;2023-01-16T15:23:37;95828.38;;;10.04
15144;BMP180;7672;50.834;6.286;2023-01-16T15:31:17;95837.19;;;9.97
15144;BMP180;7672;50.834;6.286;2023-01-16T15:33:56;95838.19;;;9.93
15144;BMP180;7672;50.834;6.286;2023-01-16T15:36:41;95840.88;;;9.90
15144;BMP180;7672;50.834;6.286;2023-01-16T15:41:38;95842.81;;;9.85
15144;BMP180;7672;50.834;6.286;2023-01-16T15:44:28;95832.91;;;9.82
15144;BMP180;7672;50.834;6.286;2023-01-16T15:50:52;95841.84;;;9.72
15144;BMP180;7672;50.834;6.286;2023-01-16T15:53:23;95836.16;;;9.69
15144;BMP180;7672;50.834;6.286;2023-01-16T15:56:07;95845.34;;;9.70
15144;BMP180;7672;50.834;6.286;2023-01-16T15:58:35;95852.03;;;9.71
15144;BMP180;7672;50.834;6.286;2023-01-16T16:01:28;95837.63;;;9.73
15144;BMP180;7672;50.834;6.286;2023-01-16T16:03:58;95840.88;;;9.75
15144;BMP180;7672;50.834;6.286;2023-01-16T16:06:26;95835.56;;;9.79
15144;BMP180;7672;50.834;6.286;2023-01-16T16:08:57;95841.44;;;9.80
15144;BMP180;7672;50.834;6.286;2023-01-16T16:11:31;95830.38;;;9.82
15144;BMP180;7672;50.834;6.286;2023-01-16T16:14:37;95836.31;;;9.81
15144;BMP180;7672;50.834;6.286;2023-01-16T16:17:34;95837.38;;;9.77
15144;BMP180;7672;50.834;6.286;2023-01-16T16:20:37;95835.09;;;9.73
15144;BMP180;7672;50.834;6.286;2023-01-16T16:25:48;95841.13;;;10.16
15144;BMP180;7672;50.834;6.286;2023-01-16T16:31:05;95829.72;;;9.94
15144;BMP180;7672;50.834;6.286;2023-01-16T16:33:33;95826.63;;;9.89
15144;BMP180;7672;50.834;6.286;2023-01-16T16:36:01;95829.41;;;9.84
15144;BMP180;7672;50.834;6.286;2023-01-16T16:38:41;95821.94;;;9.83
15144;BMP180;7672;50.834;6.286;2023-01-16T16:41:41;95825.50;;;9.79
15144;BMP180;7672;50.834;6.286;2023-01-16T16:44:45;95828.38;;;9.73
15144;BMP180;7672;50.834;6.286;2023-01-16T16:47:26;95827.63;;;9.71
15144;BMP180;7672;50.834;6.286;2023-01-16T16:49:54;95840.13;;;9.73
15144;BMP180;7672;50.834;6.286;2023-01-16T16:52:28;95842.50;;;9.76
15144;BMP180;7672;50.834;6.286;2023-01-16T16:55:00;95845.75;;;9.78
15144;BMP180;7672;50.834;6.286;2023-01-16T16:57:41;95851.44;;;9.81
15144;BMP180;7672;50.834;6.286;2023-01-16T17:00:16;95854.78;;;9.82
15144;BMP180;7672;50.834;6.286;2023-01-16T17:02:50;95852.91;;;9.85
15144;BMP180;7672;50.834;6.286;2023-01-16T17:05:18;95856.16;;;9.87
15144;BMP180;7672;50.834;6.286;2023-01-16T17:07:48;95862.84;;;9.88
15144;BMP180;7672;50.834;6.286;2023-01-16T17:10:18;95863.72;;;9.87
15144;BMP180;7672;50.834;6.286;2023-01-16T17:12:45;95867.94;;;9.86
15144;BMP180;7672;50.834;6.286;2023-01-16T17:15:11;95875.44;;;9.88
15144;BMP180;7672;50.834;6.286;2023-01-16T17:17:42;95883.91;;;9.87